Time;durP1;ratioP1;P1;durP2;ratioP2;P2;SDS_P1;SDS_P2;PMS_P1;PMS_P2;Temp;Humidity;BMP_temperature;BMP_pressure;BME280_temperature;BME280_humidity;BME280_pressure;Samples;Min_cycle;Max_cycle;Signal;HPM_P1;HPM_P2
2021/12/29 00:01:18;;;;;;;31.70;19.02;;;;;;;3.20;100.00;99566.53;10139283;28;20117;-70
2021/12/29 00:06:15;;;;;;;34.95;20.17;;;;;;;3.16;100.00;99567.13;10141427;28;20505;-70
2021/12/29 00:11:11;;;;;;;37.80;20.90;;;;;;;3.10;100.00;99579.13;10125721;28;20109;-70
2021/12/29 00:16:08;;;;;;;33.75;19.70;;;;;;;3.14;100.00;99585.53;10144846;28;20058;-70
2021/12/29 00:21:07;;;;;;;35.53;20.08;;;;;;;3.11;100.00;99596.94;10141740;28;20542;-70
2021/12/29 00:26:04;;;;;;;30.58;17.17;;;;;;;3.13;100.00;99605.56;10139493;28;20105;-69
2021/12/29 00:31:00;;;;;;;33.47;18.98;;;;;;;3.14;100.00;99607.13;10133178;28;20101;-70
2021/12/29 00:35:57;;;;;;;32.83;17.58;;;;;;;3.09;100.00;99609.94;10140640;28;20083;-71
2021/12/29 00:40:53;;;;;;;32.63;18.45;;;;;;;3.13;100.00;99604.72;10129072;28;20066;-70
2021/12/29 00:45:51;;;;;;;32.15;18.70;;;;;;;3.13;100.00;99626.34;10133014;28;20101;-69
2021/12/29 00:50:48;;;;;;;26.30;15.77;;;;;;;3.15;100.00;99641.16;10140820;28;20042;-69
2021/12/29 00:55:44;;;;;;;29.63;16.90;;;;;;;3.13;100.00;99643.38;10136157;28;20099;-69
2021/12/29 01:00:42;;;;;;;34.25;19.67;;;;;;;3.15;100.00;99657.34;10149479;28;20037;-69
2021/12/29 01:05:39;;;;;;;33.78;18.85;;;;;;;3.19;100.00;99667.59;10140900;28;20053;-69
2021/12/29 01:10:39;;;;;;;30.08;18.35;;;;;;;3.14;100.00;99682.78;10125672;28;20043;-67
2021/12/29 01:15:56;;;;;;;33.75;18.63;;;;;;;3.17;100.00;99684.88;10137787;28;20104;-68
2021/12/29 01:20:54;;;;;;;35.78;19.58;;;;;;;3.16;100.00;99701.41;10135661;28;20048;-68
2021/12/29 01:25:51;;;;;;;30.08;16.10;;;;;;;3.13;100.00;99712.75;10125562;28;20455;-68
2021/12/29 01:30:47;;;;;;;41.70;20.38;;;;;;;3.15;100.00;99715.97;10111434;28;20042;-68
2021/12/29 01:35:44;;;;;;;37.22;19.17;;;;;;;3.17;100.00;99730.78;10131672;28;20042;-68
2021/12/29 01:40:41;;;;;;;38.35;20.10;;;;;;;3.21;100.00;99731.03;10129871;28;20058;-69
2021/12/29 01:45:37;;;;;;;36.45;18.95;;;;;;;3.21;100.00;99730.22;10141493;28;20403;-70
2021/12/29 01:50:35;;;;;;;34.67;19.77;;;;;;;3.24;100.00;99735.03;10132775;28;20043;-69
2021/12/29 01:55:31;;;;;;;40.97;21.67;;;;;;;3.13;100.00;99751.41;10134679;28;20070;-69
2021/12/29 02:00:32;;;;;;;39.33;19.85;;;;;;;3.24;100.00;99762.06;10145024;28;20125;-68
2021/12/29 02:05:29;;;;;;;43.17;21.27;;;;;;;3.26;100.00;99765.28;10140024;28;20481;-69
2021/12/29 02:10:31;;;;;;;37.88;19.25;;;;;;;3.19;100.00;99759.44;10135568;28;20105;-69
2021/12/29 02:15:27;;;;;;;48.10;22.55;;;;;;;3.13;100.00;99759.50;10134558;28;20109;-69
2021/12/29 02:20:24;;;;;;;60.60;23.83;;;;;;;3.23;100.00;99777.47;10131636;28;20089;-71
2021/12/29 02:25:33;;;;;;;48.45;22.58;;;;;;;3.16;100.00;99777.81;10133650;28;20085;-71
2021/12/29 02:30:30;;;;;;;53.15;21.77;;;;;;;3.17;100.00;99790.22;10146808;28;20473;-71
2021/12/29 02:35:26;;;;;;;50.97;23.20;;;;;;;3.14;100.00;99796.22;10136473;28;20038;-71
2021/12/29 02:40:23;;;;;;;49.40;22.52;;;;;;;3.13;100.00;99796.50;10131799;28;20503;-69
2021/12/29 02:45:22;;;;;;;43.47;19.83;;;;;;;3.10;100.00;99800.59;10153547;28;20138;-71
2021/12/29 02:50:18;;;;;;;45.72;23.23;;;;;;;3.14;100.00;99812.44;10144219;28;20729;-70
2021/12/29 02:55:15;;;;;;;47.20;20.85;;;;;;;3.11;100.00;99833.78;10137659;28;20490;-70
2021/12/29 03:00:14;;;;;;;55.85;23.55;;;;;;;3.14;100.00;99834.03;10130822;28;20510;-69
2021/12/29 03:05:10;;;;;;;46.20;21.38;;;;;;;3.15;100.00;99841.03;10138710;28;20051;-69
2021/12/29 03:10:07;;;;;;;50.53;21.05;;;;;;;3.14;100.00;99838.63;10125725;28;20069;-69
2021/12/29 03:15:04;;;;;;;52.45;21.48;;;;;;;3.12;100.00;99857.81;10150811;28;20050;-69
2021/12/29 03:20:01;;;;;;;56.35;22.65;;;;;;;3.13;100.00;99867.56;10146326;28;20660;-70
2021/12/29 03:24:57;;;;;;;57.28;24.17;;;;;;;3.12;100.00;99874.03;10165915;28;20113;-69
2021/12/29 03:29:54;;;;;;;84.32;25.95;;;;;;;2.91;100.00;99883.47;10146671;28;20082;-70
2021/12/29 03:34:50;;;;;;;55.05;25.10;;;;;;;3.08;100.00;99886.50;10103729;28;20151;-68
2021/12/29 03:39:46;;;;;;;53.88;21.92;;;;;;;3.08;100.00;99894.59;10102989;28;20098;-69
2021/12/29 03:44:43;;;;;;;52.22;22.13;;;;;;;3.05;100.00;99892.47;10132540;28;20042;-69
2021/12/29 03:49:40;;;;;;;47.42;22.88;;;;;;;3.09;100.00;99907.03;10146311;28;20445;-69
2021/12/29 03:54:36;;;;;;;77.13;27.70;;;;;;;3.03;100.00;99913.56;10148414;28;20101;-69
2021/12/29 03:59:33;;;;;;;56.33;24.70;;;;;;;2.99;100.00;99923.34;10139900;28;20133;-69
2021/12/29 04:04:29;;;;;;;56.83;25.65;;;;;;;2.97;100.00;99914.75;10148391;28;20117;-69
2021/12/29 04:09:26;;;;;;;49.55;23.35;;;;;;;3.04;100.00;99915.19;10129606;28;20043;-69
2021/12/29 04:14:26;;;;;;;54.00;23.02;;;;;;;3.08;100.00;99921.59;10141822;28;20454;-70
2021/12/29 04:19:39;;;;;;;50.22;23.30;;;;;;;3.10;100.00;99916.72;10130248;28;20046;-69
2021/12/29 04:24:36;;;;;;;47.80;22.15;;;;;;;3.14;100.00;99914.28;10141201;28;20069;-69
2021/12/29 04:29:33;;;;;;;46.58;20.00;;;;;;;3.06;100.00;99929.19;10141596;28;20038;-69
2021/12/29 04:34:29;;;;;;;51.47;23.42;;;;;;;3.11;100.00;99948.06;10132813;28;20089;-68
2021/12/29 04:39:26;;;;;;;56.53;26.77;;;;;;;3.13;100.00;99972.06;10126729;28;20076;-70
2021/12/29 04:44:22;;;;;;;55.35;24.27;;;;;;;3.08;100.00;99981.03;10135035;28;20092;-70
2021/12/29 04:49:24;;;;;;;49.33;23.40;;;;;;;3.08;100.00;100008.03;10124250;28;20069;-70
2021/12/29 04:54:20;;;;;;;50.60;24.08;;;;;;;3.13;100.00;100005.31;10135447;28;20039;-69
2021/12/29 04:59:17;;;;;;;51.38;24.00;;;;;;;3.08;100.00;100008.03;10140836;28;20100;-69
2021/12/29 05:04:29;;;;;;;48.30;23.38;;;;;;;3.11;100.00;100012.91;10122129;28;20043;-68
2021/12/29 05:09:25;;;;;;;57.65;23.50;;;;;;;2.98;100.00;100024.34;10137413;28;20051;-69
2021/12/29 05:14:22;;;;;;;50.92;24.05;;;;;;;3.09;100.00;100025.06;10101563;28;20042;-70
2021/12/29 05:19:18;;;;;;;44.13;21.80;;;;;;;3.15;100.00;100000.41;10095238;28;20590;-70
2021/12/29 05:24:15;;;;;;;41.42;20.13;;;;;;;3.16;100.00;100010.13;10103269;28;20039;-70
2021/12/29 05:29:12;;;;;;;41.85;19.60;;;;;;;3.21;100.00;100024.69;10122200;28;20066;-69
2021/12/29 05:34:08;;;;;;;46.22;22.00;;;;;;;3.25;100.00;100036.50;10143917;28;20054;-69
2021/12/29 05:39:05;;;;;;;57.53;24.33;;;;;;;3.20;100.00;100058.19;10140506;28;20046;-70
2021/12/29 05:44:02;;;;;;;52.33;25.88;;;;;;;3.17;100.00;100060.34;10140441;28;20038;-70
2021/12/29 05:48:59;;;;;;;45.85;23.27;;;;;;;3.33;100.00;100057.53;10138109;28;20058;-71
2021/12/29 05:53:56;;;;;;;46.97;23.55;;;;;;;3.36;100.00;100067.75;10148463;28;20510;-71
2021/12/29 05:58:52;;;;;;;54.17;25.90;;;;;;;3.37;100.00;100072.09;10144437;28;20525;-68
2021/12/29 06:03:49;;;;;;;47.08;22.30;;;;;;;3.36;100.00;100075.84;10153498;28;20465;-67
2021/12/29 06:08:46;;;;;;;34.08;18.75;;;;;;;3.38;100.00;100081.78;10147467;28;20453;-68
2021/12/29 06:13:42;;;;;;;47.13;23.08;;;;;;;3.39;100.00;100080.72;10155252;28;20042;-68
2021/12/29 06:18:38;;;;;;;44.83;22.10;;;;;;;3.39;100.00;100088.81;10151254;28;20046;-68
2021/12/29 06:23:35;;;;;;;50.22;25.42;;;;;;;3.44;100.00;100091.47;10152307;28;20070;-70
2021/12/29 06:28:31;;;;;;;58.92;26.73;;;;;;;3.42;100.00;100109.88;10152752;28;20073;-69
2021/12/29 06:33:29;;;;;;;59.38;27.48;;;;;;;3.28;100.00;100114.31;10149316;28;20078;-70
2021/12/29 06:38:26;;;;;;;59.83;29.13;;;;;;;3.34;100.00;100113.16;10151233;28;20074;-69
2021/12/29 06:43:23;;;;;;;62.92;27.60;;;;;;;3.30;100.00;100122.94;10136735;28;20046;-70
2021/12/29 06:48:20;;;;;;;61.47;27.42;;;;;;;3.22;100.00;100120.84;10142616;28;20637;-70
2021/12/29 06:53:17;;;;;;;57.38;28.10;;;;;;;3.27;100.00;100139.72;10145148;28;20502;-70
2021/12/29 06:58:13;;;;;;;48.10;23.88;;;;;;;3.24;100.00;100145.69;10144447;28;20108;-70
2021/12/29 07:03:09;;;;;;;53.38;26.33;;;;;;;3.25;100.00;100150.00;10149513;28;20071;-70
2021/12/29 07:08:07;;;;;;;52.03;25.15;;;;;;;3.29;100.00;100167.25;10122374;28;20042;-71
2021/12/29 07:13:03;;;;;;;51.42;24.10;;;;;;;3.29;100.00;100169.97;10132361;28;20508;-71
2021/12/29 07:18:00;;;;;;;52.58;25.90;;;;;;;3.31;100.00;100192.09;10129975;28;20055;-70
2021/12/29 07:22:57;;;;;;;56.38;28.45;;;;;;;3.32;100.00;100223.47;10138318;28;20066;-70
2021/12/29 07:27:54;;;;;;;54.60;27.38;;;;;;;3.27;100.00;100239.69;10142387;28;20097;-70
2021/12/29 07:32:51;;;;;;;51.10;26.10;;;;;;;3.29;100.00;100251.03;10146861;28;20148;-71
2021/12/29 07:37:47;;;;;;;58.78;28.42;;;;;;;3.19;100.00;100257.31;10138279;28;20078;-71
2021/12/29 07:42:44;;;;;;;57.85;28.58;;;;;;;3.19;100.00;100272.72;10144258;28;20062;-71
2021/12/29 07:47:47;;;;;;;49.22;24.25;;;;;;;3.12;100.00;100284.63;10136094;28;20104;-71
2021/12/29 07:52:48;;;;;;;59.63;27.83;;;;;;;3.11;100.00;100299.22;10146475;28;20078;-70
2021/12/29 07:57:46;;;;;;;60.45;27.77;;;;;;;3.02;100.00;100300.91;10142566;28;20493;-69
2021/12/29 08:02:44;;;;;;;55.90;27.73;;;;;;;2.95;100.00;100316.59;10145045;28;20574;-69
2021/12/29 08:07:41;;;;;;;57.45;27.88;;;;;;;3.02;100.00;100311.69;10144943;28;20794;-70
2021/12/29 08:12:37;;;;;;;54.55;26.65;;;;;;;3.05;100.00;100316.53;10141130;28;20073;-70
2021/12/29 08:17:34;;;;;;;57.05;28.52;;;;;;;3.04;100.00;100328.44;10123884;28;20182;-69
2021/12/29 08:22:30;;;;;;;52.15;24.27;;;;;;;3.07;100.00;100324.38;10129946;28;20050;-70
2021/12/29 08:27:27;;;;;;;64.95;29.30;;;;;;;3.13;100.00;100329.47;10133627;28;20047;-70
2021/12/29 08:32:23;;;;;;;47.78;24.98;;;;;;;3.17;100.00;100317.00;10138977;28;20101;-70
2021/12/29 08:37:20;;;;;;;53.17;25.98;;;;;;;3.22;100.00;100326.19;10136052;28;20230;-71
2021/12/29 08:42:16;;;;;;;59.05;28.25;;;;;;;3.20;100.00;100322.94;10135695;28;20061;-69
2021/12/29 08:47:13;;;;;;;56.15;26.95;;;;;;;3.24;100.00;100326.72;10145120;28;20104;-71
2021/12/29 08:52:10;;;;;;;54.15;25.92;;;;;;;3.29;100.00;100323.97;10144171;28;20043;-71
2021/12/29 08:57:06;;;;;;;56.47;27.00;;;;;;;3.36;100.00;100338.00;10144821;28;20046;-70
2021/12/29 09:02:03;;;;;;;55.88;26.95;;;;;;;3.33;100.00;100330.44;10146054;28;20077;-70
2021/12/29 09:07:00;;;;;;;56.63;26.73;;;;;;;3.31;100.00;100329.91;10137528;28;20335;-70
2021/12/29 09:11:58;;;;;;;57.22;27.50;;;;;;;3.36;100.00;100359.59;10142677;28;20565;-70
2021/12/29 09:16:55;;;;;;;53.08;25.40;;;;;;;3.46;100.00;100358.75;10144789;28;20038;-71
2021/12/29 09:21:56;;;;;;;61.13;29.85;;;;;;;3.46;100.00;100364.97;10147615;28;20101;-70
2021/12/29 09:26:53;;;;;;;62.38;27.90;;;;;;;3.43;100.00;100360.09;10145785;28;20043;-70
2021/12/29 09:31:50;;;;;;;63.90;29.58;;;;;;;3.37;100.00;100372.06;10146633;28;20482;-70
2021/12/29 09:36:46;;;;;;;63.88;29.67;;;;;;;3.27;100.00;100382.88;10139898;28;20109;-71
2021/12/29 09:41:43;;;;;;;60.60;27.48;;;;;;;3.19;100.00;100397.78;10140471;28;20073;-70
2021/12/29 09:46:40;;;;;;;60.13;27.48;;;;;;;3.17;100.00;100395.34;10144135;28;20070;-70
2021/12/29 09:51:37;;;;;;;62.03;29.77;;;;;;;3.25;100.00;100385.88;10141708;28;20577;-71
2021/12/29 09:56:34;;;;;;;63.60;29.67;;;;;;;3.36;100.00;100387.47;10142112;28;20054;-70
2021/12/29 10:01:30;;;;;;;68.88;29.55;;;;;;;3.47;100.00;100377.41;10145121;28;20394;-70
2021/12/29 10:06:27;;;;;;;61.92;28.20;;;;;;;3.58;100.00;100378.97;10138452;28;20403;-71
2021/12/29 10:11:28;;;;;;;66.30;29.95;;;;;;;3.61;100.00;100382.19;10143356;28;20463;-71
2021/12/29 10:16:29;;;;;;;57.63;25.77;;;;;;;3.67;100.00;100394.59;10141434;28;20502;-70
2021/12/29 10:21:26;;;;;;;60.67;28.35;;;;;;;3.70;100.00;100402.94;10146919;28;20117;-71
2021/12/29 10:26:34;;;;;;;56.05;27.27;;;;;;;3.64;100.00;100414.06;10150148;28;20528;-71
2021/12/29 10:31:34;;;;;;;55.95;25.05;;;;;;;3.81;100.00;100425.34;10147522;28;20121;-72
2021/12/29 10:36:52;;;;;;;61.53;29.33;;;;;;;3.85;100.00;100430.97;10145941;28;20454;-70
2021/12/29 10:41:51;;;;;;;56.42;24.45;;;;;;;3.93;100.00;100417.69;10149506;28;20046;-70
2021/12/29 10:46:47;;;;;;;48.30;23.08;;;;;;;4.08;100.00;100402.44;10149255;28;20097;-72
2021/12/29 10:51:46;;;;;;;58.72;27.52;;;;;;;4.11;100.00;100418.91;10148493;28;20137;-72
2021/12/29 10:56:46;;;;;;;57.45;27.05;;;;;;;3.99;100.00;100427.38;10145290;28;20046;-68
2021/12/29 11:01:42;;;;;;;57.53;24.67;;;;;;;4.09;100.00;100406.75;10142638;28;20077;-68
2021/12/29 11:06:46;;;;;;;62.33;27.80;;;;;;;4.18;100.00;100413.19;10145983;28;20046;-68
2021/12/29 11:11:45;;;;;;;55.30;23.73;;;;;;;4.18;100.00;100413.19;10146829;28;20093;-69
2021/12/29 11:16:44;;;;;;;58.97;26.35;;;;;;;4.16;100.00;100420.78;10160459;28;20100;-69
2021/12/29 11:21:42;;;;;;;60.03;27.40;;;;;;;4.00;100.00;100431.69;10145080;28;20058;-68
2021/12/29 11:26:38;;;;;;;59.15;26.60;;;;;;;4.00;100.00;100422.78;10148029;28;20131;-68
2021/12/29 11:31:46;;;;;;;61.38;26.55;;;;;;;3.95;100.00;100433.66;10145174;28;20100;-69
2021/12/29 11:36:44;;;;;;;54.38;24.98;;;;;;;4.10;100.00;100428.13;10145145;28;20081;-68
2021/12/29 11:41:42;;;;;;;54.78;25.75;;;;;;;4.19;100.00;100436.44;10145601;28;20105;-69
2021/12/29 11:46:39;;;;;;;49.40;24.85;;;;;;;4.29;100.00;100425.53;10146572;28;20046;-69
2021/12/29 11:51:54;;;;;;;51.50;22.92;;;;;;;4.33;100.00;100436.63;10141855;28;20113;-70
2021/12/29 11:56:50;;;;;;;45.42;21.90;;;;;;;4.38;100.00;100440.06;10148537;28;20133;-69
2021/12/29 12:01:57;;;;;;;50.60;23.13;;;;;;;4.41;100.00;100461.19;10144121;28;20050;-69
2021/12/29 12:07:05;;;;;;;46.88;21.65;;;;;;;4.46;100.00;100463.03;10133008;28;21659;-69
2021/12/29 12:12:03;;;;;;;40.75;21.20;;;;;;;4.45;100.00;100460.63;10128816;28;20386;-68
2021/12/29 12:17:03;;;;;;;45.08;22.25;;;;;;;4.40;100.00;100475.78;10148148;28;20081;-68
2021/12/29 12:22:05;;;;;;;41.95;21.08;;;;;;;4.48;100.00;100492.53;10150527;28;20069;-68
2021/12/29 12:27:15;;;;;;;48.17;22.85;;;;;;;4.40;100.00;100519.09;10128827;28;20109;-68
2021/12/29 12:32:17;;;;;;;45.95;22.40;;;;;;;4.45;100.00;100525.59;10133091;28;20108;-68
2021/12/29 12:37:16;;;;;;;46.45;22.52;;;;;;;4.41;100.00;100515.31;10129952;28;20052;-68
2021/12/29 12:42:17;;;;;;;57.22;25.08;;;;;;;4.35;100.00;100519.16;10125260;28;20074;-69
2021/12/29 12:47:14;;;;;;;53.80;24.92;;;;;;;4.45;100.00;100525.59;10138656;28;20096;-68
2021/12/29 12:52:13;;;;;;;48.13;23.15;;;;;;;4.52;100.00;100526.06;10140922;28;20054;-69
2021/12/29 12:57:10;;;;;;;60.22;23.95;;;;;;;4.51;100.00;100532.59;10125231;28;20108;-68
2021/12/29 13:02:21;;;;;;;59.53;26.20;;;;;;;4.51;100.00;100548.84;10134058;28;20093;-69
2021/12/29 13:07:23;;;;;;;64.38;26.10;;;;;;;4.49;100.00;100559.94;10130934;28;20050;-69
2021/12/29 13:12:26;;;;;;;61.42;26.05;;;;;;;4.54;100.00;100545.56;10132887;28;20042;-69
2021/12/29 13:17:23;;;;;;;74.15;29.52;;;;;;;4.45;100.00;100563.50;10147876;28;20077;-68
2021/12/29 13:22:25;;;;;;;75.00;30.08;;;;;;;4.41;100.00;100561.34;10142712;28;20046;-69
2021/12/29 13:27:21;;;;;;;77.50;32.42;;;;;;;4.38;100.00;100548.34;10127276;28;20193;-68
2021/12/29 13:32:18;;;;;;;68.15;28.13;;;;;;;4.47;100.00;100555.91;10138423;28;20050;-68
2021/12/29 13:37:16;;;;;;;62.55;24.40;;;;;;;4.45;100.00;100547.25;10132388;28;20089;-68
2021/12/29 13:42:12;;;;;;;59.03;25.50;;;;;;;4.42;100.00;100533.19;10137025;28;20081;-69
2021/12/29 13:47:09;;;;;;;62.67;24.70;;;;;;;4.40;100.00;100523.72;10137143;28;20085;-67
2021/12/29 13:52:05;;;;;;;63.95;25.35;;;;;;;4.49;100.00;100510.41;10138575;28;20693;-69
2021/12/29 13:57:02;;;;;;;57.20;21.80;;;;;;;4.41;100.00;100520.75;10140876;28;20050;-69
2021/12/29 14:02:02;;;;;;;50.83;21.00;;;;;;;4.50;100.00;100533.66;10145211;28;20070;-68
2021/12/29 14:07:02;;;;;;;64.18;24.92;;;;;;;4.57;100.00;100544.97;10141618;28;20063;-68
2021/12/29 14:12:14;;;;;;;59.75;25.67;;;;;;;4.65;100.00;100547.09;10138438;28;20101;-69
2021/12/29 14:17:23;;;;;;;61.20;24.65;;;;;;;4.70;100.00;100560.59;10145795;28;20054;-68
2021/12/29 14:22:24;;;;;;;54.80;22.10;;;;;;;4.77;100.00;100547.53;10131546;28;20078;-69
2021/12/29 14:27:25;;;;;;;53.88;23.08;;;;;;;4.78;100.00;100545.63;10139526;28;20062;-69
2021/12/29 14:32:22;;;;;;;50.97;22.00;;;;;;;4.74;100.00;100556.25;10130193;28;20043;-68
2021/12/29 14:37:22;;;;;;;52.00;23.38;;;;;;;4.75;100.00;100557.84;10134260;28;20112;-69
2021/12/29 14:42:24;;;;;;;63.45;25.67;;;;;;;4.76;100.00;100564.91;10129688;28;20066;-68
2021/12/29 14:47:21;;;;;;;59.70;27.95;;;;;;;4.76;100.00;100554.06;10139846;28;20109;-67
2021/12/29 14:52:18;;;;;;;75.07;28.10;;;;;;;4.77;100.00;100544.03;10147468;28;20093;-66
2021/12/29 14:57:24;;;;;;;62.35;27.55;;;;;;;4.72;100.00;100563.03;10135846;28;20133;-66
2021/12/29 15:02:24;;;;;;;71.78;26.52;;;;;;;4.62;100.00;100558.50;10135032;28;20193;-67
2021/12/29 15:07:22;;;;;;;67.05;26.98;;;;;;;4.62;100.00;100553.09;10126919;28;20097;-65
2021/12/29 15:12:19;;;;;;;80.45;31.15;;;;;;;4.66;100.00;100556.84;10128045;28;20097;-67
2021/12/29 15:17:15;;;;;;;75.15;30.23;;;;;;;4.62;100.00;100555.81;10137452;28;20047;-67
2021/12/29 15:22:12;;;;;;;79.05;32.67;;;;;;;4.55;100.00;100564.25;10141551;28;20077;-68
2021/12/29 15:27:09;;;;;;;90.55;32.22;;;;;;;4.52;100.00;100566.69;10118737;28;20062;-67
2021/12/29 15:32:06;;;;;;;108.00;32.85;;;;;;;4.53;100.00;100576.44;10126971;28;20126;-68
2021/12/29 15:37:02;;;;;;;85.65;30.67;;;;;;;4.58;100.00;100557.44;10134124;28;20116;-66
2021/12/29 15:41:59;;;;;;;79.95;28.65;;;;;;;4.51;100.00;100556.97;10139628;28;20120;-68
2021/12/29 15:46:55;;;;;;;88.97;29.20;;;;;;;4.42;100.00;100560.25;10125625;28;20109;-67
2021/12/29 15:51:52;;;;;;;100.65;28.65;;;;;;;4.48;100.00;100557.50;10141954;28;20426;-68
2021/12/29 15:56:48;;;;;;;80.25;28.42;;;;;;;4.46;100.00;100559.72;10126479;28;20054;-67
2021/12/29 16:01:45;;;;;;;69.55;26.42;;;;;;;4.37;100.00;100552.16;10132136;28;20498;-68
2021/12/29 16:06:42;;;;;;;70.72;25.77;;;;;;;4.41;100.00;100553.22;10121040;28;20426;-67
2021/12/29 16:11:38;;;;;;;92.53;27.02;;;;;;;4.42;100.00;100562.97;10132045;28;20086;-68
2021/12/29 16:16:35;;;;;;;67.07;23.95;;;;;;;4.45;100.00;100552.66;10135864;28;20089;-68
2021/12/29 16:21:31;;;;;;;79.85;25.85;;;;;;;4.28;100.00;100570.06;10130477;28;20047;-67
2021/12/29 16:26:28;;;;;;;65.13;25.58;;;;;;;4.36;100.00;100572.22;10135915;28;20465;-69
2021/12/29 16:31:25;;;;;;;62.75;24.42;;;;;;;4.41;100.00;100558.63;10133544;28;20073;-68
2021/12/29 16:36:21;;;;;;;55.95;22.80;;;;;;;4.38;100.00;100561.09;10125162;28;20096;-67
2021/12/29 16:41:18;;;;;;;70.05;25.45;;;;;;;4.40;100.00;100550.78;10135429;28;20100;-68
2021/12/29 16:46:14;;;;;;;88.97;25.15;;;;;;;4.50;100.00;100541.78;10118741;28;20629;-67
2021/12/29 16:51:12;;;;;;;59.25;23.80;;;;;;;4.59;100.00;100534.69;10127227;28;20133;-67
2021/12/29 16:56:08;;;;;;;96.68;25.98;;;;;;;4.57;100.00;100531.44;10140005;28;20046;-68
2021/12/29 17:01:06;;;;;;;104.80;25.95;;;;;;;4.51;100.00;100519.06;10129283;28;20684;-70
2021/12/29 17:06:04;;;;;;;64.13;24.35;;;;;;;4.58;100.00;100541.19;10130203;28;20073;-70
2021/12/29 17:11:00;;;;;;;78.20;23.83;;;;;;;4.59;100.00;100526.56;10122633;28;20089;-70
2021/12/29 17:15:57;;;;;;;46.05;21.08;;;;;;;4.49;100.00;100537.47;10120747;28;20077;-69
2021/12/29 17:20:54;;;;;;;46.80;20.70;;;;;;;4.51;100.00;100538.00;10112171;28;20042;-70
2021/12/29 17:25:52;;;;;;;61.05;23.88;;;;;;;4.59;100.00;100526.56;10122838;28;20054;-69
2021/12/29 17:30:48;;;;;;;61.75;22.20;;;;;;;4.57;100.00;100507.06;10133565;28;20560;-69
2021/12/29 17:35:45;;;;;;;48.08;21.80;;;;;;;4.58;100.00;100511.41;10138712;28;20046;-69
2021/12/29 17:40:42;;;;;;;55.33;22.02;;;;;;;4.59;100.00;100504.91;10126693;28;20074;-69
2021/12/29 17:45:38;;;;;;;57.10;22.27;;;;;;;4.66;100.00;100499.97;10121015;28;20134;-70
2021/12/29 17:50:35;;;;;;;59.03;21.85;;;;;;;4.62;100.00;100512.47;10135966;28;20142;-69
2021/12/29 17:55:32;;;;;;;49.38;21.38;;;;;;;4.68;100.00;100505.91;10134113;28;20038;-69
2021/12/29 18:00:30;;;;;;;51.83;20.08;;;;;;;4.66;100.00;100516.22;10120684;28;20050;-69
2021/12/29 18:05:27;;;;;;;47.58;21.30;;;;;;;4.66;100.00;100529.75;10142535;28;20536;-69
2021/12/29 18:10:24;;;;;;;54.90;21.90;;;;;;;4.69;100.00;100531.91;10127677;28;20069;-69
2021/12/29 18:15:21;;;;;;;52.65;21.80;;;;;;;4.72;100.00;100520.50;10127362;28;20059;-69
2021/12/29 18:20:20;;;;;;;56.15;24.48;;;;;;;4.68;100.00;100516.75;10107628;28;20138;-69
2021/12/29 18:25:17;;;;;;;53.63;23.33;;;;;;;4.64;100.00;100521.09;10126187;28;20095;-69
2021/12/29 18:30:14;;;;;;;58.72;22.55;;;;;;;4.62;100.00;100520.59;10143771;28;20082;-69
2021/12/29 18:35:11;;;;;;;59.95;23.05;;;;;;;4.60;100.00;100522.78;10128975;28;20105;-69
2021/12/29 18:40:09;;;;;;;52.17;22.15;;;;;;;4.56;100.00;100521.72;10139763;28;20718;-69
2021/12/29 18:45:07;;;;;;;61.45;25.17;;;;;;;4.56;100.00;100519.81;10153586;28;20077;-68
2021/12/29 18:50:08;;;;;;;56.30;25.40;;;;;;;4.57;100.00;100524.16;10138103;28;20050;-69
2021/12/29 18:55:07;;;;;;;59.38;25.60;;;;;;;4.59;100.00;100516.53;10141989;28;20045;-69
2021/12/29 19:00:07;;;;;;;66.78;27.92;;;;;;;4.60;100.00;100511.94;10136244;28;20499;-69
2021/12/29 19:05:04;;;;;;;76.35;25.55;;;;;;;4.60;100.00;100511.94;10136015;28;20049;-70
2021/12/29 19:10:01;;;;;;;47.08;19.77;;;;;;;4.61;100.00;100518.97;10137114;28;20059;-70
2021/12/29 19:14:58;;;;;;;51.95;21.23;;;;;;;4.71;100.00;100524.31;10134734;28;20116;-70
2021/12/29 19:19:54;;;;;;;51.15;21.73;;;;;;;4.77;100.00;100512.34;10135268;28;20058;-70
2021/12/29 19:24:51;;;;;;;59.30;22.23;;;;;;;4.75;100.00;100519.94;10138480;28;20097;-69
2021/12/29 19:29:47;;;;;;;57.72;20.67;;;;;;;4.82;100.00;100525.03;10132959;28;20242;-70
2021/12/29 19:34:44;;;;;;;51.92;20.20;;;;;;;4.84;100.00;100517.44;10140770;28;20038;-69
2021/12/29 19:39:43;;;;;;;47.88;20.67;;;;;;;4.84;100.00;100501.97;10142094;28;20561;-70
2021/12/29 19:44:42;;;;;;;42.60;19.05;;;;;;;4.77;100.00;100511.53;10131072;28;20054;-70
2021/12/29 19:49:39;;;;;;;37.33;17.65;;;;;;;4.80;100.00;100511.78;10138382;28;20042;-70
2021/12/29 19:54:35;;;;;;;49.30;19.35;;;;;;;4.83;100.00;100508.50;10129332;28;20042;-70
2021/12/29 19:59:32;;;;;;;44.75;18.05;;;;;;;4.96;100.00;100503.50;10130425;28;20450;-70
2021/12/29 20:04:30;;;;;;;49.42;19.27;;;;;;;4.99;100.00;100505.63;10149031;28;20554;-71
2021/12/29 20:09:29;;;;;;;46.28;19.95;;;;;;;4.96;100.00;100487.25;10140647;28;20080;-70
2021/12/29 20:14:28;;;;;;;47.20;19.77;;;;;;;4.95;100.00;100491.06;10148314;28;20081;-70
2021/12/29 20:19:24;;;;;;;38.63;18.25;;;;;;;4.99;100.00;100478.53;10119718;28;20082;-70
2021/12/29 20:24:24;;;;;;;40.83;17.33;;;;;;;4.99;100.00;100481.25;10138882;28;20148;-70
2021/12/29 20:29:21;;;;;;;36.42;17.80;;;;;;;5.00;100.00;100455.78;10133296;28;20117;-71
2021/12/29 20:34:18;;;;;;;38.67;16.85;;;;;;;5.04;100.00;100446.00;10144803;28;20450;-70
2021/12/29 20:39:15;;;;;;;49.13;18.52;;;;;;;5.12;100.00;100437.22;10136831;28;20518;-70
2021/12/29 20:44:11;;;;;;;39.47;17.17;;;;;;;5.14;100.00;100426.91;10142031;28;20105;-71
2021/12/29 20:49:09;;;;;;;38.72;15.85;;;;;;;5.16;100.00;100449.09;10131590;28;20090;-70
2021/12/29 20:54:06;;;;;;;36.10;15.85;;;;;;;5.15;100.00;100444.78;10141275;28;20623;-70
2021/12/29 20:59:04;;;;;;;32.63;15.75;;;;;;;5.11;100.00;100451.06;10138445;28;20046;-68
2021/12/29 21:04:00;;;;;;;35.08;14.82;;;;;;;5.10;100.00;100442.09;10138333;28;20154;-67
2021/12/29 21:08:57;;;;;;;27.75;12.82;;;;;;;5.17;100.00;100449.91;10116015;28;20050;-69
2021/12/29 21:13:54;;;;;;;31.67;13.73;;;;;;;5.19;100.00;100481.03;10139195;28;20521;-69
2021/12/29 21:18:50;;;;;;;35.88;15.13;;;;;;;5.17;100.00;100491.34;10132239;28;20050;-71
2021/12/29 21:23:49;;;;;;;33.13;16.00;;;;;;;5.22;100.00;100506.75;10108425;28;20043;-67
2021/12/29 21:28:45;;;;;;;32.90;16.08;;;;;;;5.23;100.00;100509.19;10131064;28;20046;-70
2021/12/29 21:33:42;;;;;;;33.67;15.18;;;;;;;5.18;100.00;100495.69;10134023;28;20623;-67
2021/12/29 21:38:39;;;;;;;36.58;16.95;;;;;;;5.23;100.00;100482.09;10123504;28;20078;-67
2021/12/29 21:43:36;;;;;;;40.05;15.93;;;;;;;5.20;100.00;100479.97;10130654;28;20051;-67
2021/12/29 21:48:34;;;;;;;32.47;15.77;;;;;;;5.19;100.00;100478.34;10137582;28;20042;-67
2021/12/29 21:53:32;;;;;;;31.83;14.70;;;;;;;5.17;100.00;100477.81;10136965;28;20055;-67
2021/12/29 21:58:29;;;;;;;31.67;14.90;;;;;;;5.18;100.00;100467.81;10119189;28;20490;-67
2021/12/29 22:03:25;;;;;;;31.45;14.23;;;;;;;5.11;100.00;100478.97;10111092;28;20043;-69
2021/12/29 22:08:22;;;;;;;33.03;15.55;;;;;;;5.16;100.00;100470.78;10114358;28;20415;-69
2021/12/29 22:13:19;;;;;;;29.42;13.98;;;;;;;5.17;100.00;100469.69;10126713;28;20481;-67
2021/12/29 22:18:15;;;;;;;30.95;14.65;;;;;;;5.21;100.00;100467.22;10146339;28;20054;-67